createdAt,value
2017-04-17T00:00:41.638Z,0
2017-04-17T00:01:36.697Z,0
2017-04-17T00:02:31.681Z,0
2017-04-17T00:03:32.752Z,0
2017-04-17T00:04:32.751Z,0
2017-04-17T00:05:32.765Z,0
2017-04-17T00:06:27.915Z,0
2017-04-17T00:07:21.810Z,0
2017-04-17T00:08:22.855Z,0
2017-04-17T00:09:22.886Z,0
2017-04-17T00:10:22.932Z,0
2017-04-17T00:11:17.955Z,0
2017-04-17T00:12:12.002Z,0
2017-04-17T00:13:12.255Z,0
2017-04-17T00:14:07.143Z,0
2017-04-17T00:15:02.066Z,0
2017-04-17T00:16:03.088Z,0
2017-04-17T00:17:03.126Z,0
2017-04-17T00:18:03.211Z,0
2017-04-17T00:19:03.174Z,0
2017-04-17T00:20:04.196Z,0
2017-04-17T00:21:05.532Z,0
2017-04-17T00:21:59.269Z,0
2017-04-17T00:22:59.246Z,0
2017-04-17T00:23:54.283Z,0
2017-04-17T00:24:49.334Z,0
2017-04-17T00:25:49.359Z,0
2017-04-17T00:26:44.547Z,0
2017-04-17T00:27:39.402Z,0
2017-04-17T00:28:39.441Z,0
2017-04-17T00:29:34.505Z,0
2017-04-17T00:30:23.482Z,0
2017-04-17T00:31:17.686Z,0
2017-04-17T00:32:11.564Z,0
2017-04-17T00:33:05.602Z,0
2017-04-17T00:33:59.627Z,0
2017-04-17T00:35:05.656Z,0
2017-04-17T00:36:05.679Z,0
2017-04-17T00:36:59.727Z,0
2017-04-17T00:37:59.828Z,0
2017-04-17T00:38:54.733Z,0
2017-04-17T00:39:49.810Z,0
2017-04-17T00:40:50.828Z,0
2017-04-17T00:41:51.808Z,0
2017-04-17T00:42:46.862Z,0
2017-04-17T00:43:40.930Z,0
2017-04-17T00:44:40.932Z,0
2017-04-17T00:45:35.971Z,0
2017-04-17T00:46:36.119Z,0
2017-04-17T00:47:30.007Z,0
2017-04-17T00:48:30.317Z,0
2017-04-17T00:49:25.089Z,0
2017-04-17T00:50:20.074Z,0
2017-04-17T00:51:20.139Z,0
2017-04-17T00:52:15.166Z,0
2017-04-17T00:53:10.161Z,0
2017-04-17T00:54:10.179Z,0
2017-04-17T00:55:05.268Z,0
2017-04-17T00:56:00.487Z,0
2017-04-17T00:57:01.263Z,0
2017-04-17T00:58:01.824Z,0
2017-04-17T00:59:01.366Z,0
2017-04-17T00:59:56.377Z,0
2017-04-17T01:00:50.405Z,0
2017-04-17T01:01:50.458Z,0
2017-04-17T01:02:45.414Z,0
2017-04-17T01:03:51.498Z,0
2017-04-17T01:04:46.526Z,0
2017-04-17T01:05:46.581Z,0
2017-04-17T01:06:46.590Z,0
2017-04-17T01:07:46.571Z,0
2017-04-17T01:08:41.632Z,0
2017-04-17T01:09:36.824Z,0
2017-04-17T01:10:37.640Z,0
2017-04-17T01:11:43.729Z,0
2017-04-17T01:12:37.769Z,0
2017-04-17T01:13:37.758Z,0
2017-04-17T01:14:37.777Z,0
2017-04-17T01:15:32.834Z,0
2017-04-17T01:16:26.899Z,0
2017-04-17T01:17:26.930Z,0
2017-04-17T01:18:21.911Z,0
2017-04-17T01:19:17.000Z,0
2017-04-17T01:20:17.976Z,0
2017-04-17T01:21:17.987Z,0
2017-04-17T01:22:18.030Z,0
2017-04-17T01:23:18.113Z,0
2017-04-17T01:24:19.092Z,0
2017-04-17T01:25:20.429Z,0
2017-04-17T01:26:14.174Z,0
2017-04-17T01:27:15.240Z,0
2017-04-17T01:28:16.231Z,0
2017-04-17T01:29:16.205Z,0
2017-04-17T01:30:16.254Z,0
2017-04-17T01:31:11.315Z,0
2017-04-17T01:32:05.496Z,0
2017-04-17T01:33:05.863Z,0
2017-04-17T01:34:00.371Z,0
2017-04-17T01:34:54.416Z,0
2017-04-17T01:35:48.408Z,0
2017-04-17T01:36:37.632Z,0
2017-04-17T01:37:37.482Z,0
2017-04-17T01:38:32.499Z,0
2017-04-17T01:39:32.580Z,0
2017-04-17T01:40:26.655Z,0
2017-04-17T01:41:26.625Z,0
2017-04-17T01:42:21.673Z,0
2017-04-17T01:43:16.673Z,0
2017-04-17T01:44:16.724Z,0
2017-04-17T01:45:11.744Z,0
2017-04-17T01:46:05.821Z,0
2017-04-17T01:47:00.799Z,0
2017-04-17T01:47:54.817Z,0
2017-04-17T01:48:55.092Z,0
2017-04-17T01:49:54.892Z,0
2017-04-17T01:50:49.881Z,0
2017-04-17T01:51:43.985Z,0
2017-04-17T01:52:37.997Z,0
2017-04-17T01:53:27.326Z,0
2017-04-17T01:54:21.094Z,0
2017-04-17T01:55:10.098Z,0
2017-04-17T01:56:04.172Z,0
2017-04-17T01:57:04.180Z,0
2017-04-17T01:57:58.469Z,0
2017-04-17T01:58:58.211Z,0
2017-04-17T01:59:53.235Z,0
2017-04-17T02:00:54.276Z,0
2017-04-17T02:01:54.260Z,0
2017-04-17T02:02:55.323Z,0
2017-04-17T02:03:55.310Z,0
2017-04-17T02:04:43.689Z,0
2017-04-17T02:05:43.407Z,0
2017-04-17T02:06:43.388Z,0
2017-04-17T02:07:32.477Z,0
2017-04-17T02:08:32.487Z,0
2017-04-17T02:09:26.506Z,0
2017-04-17T02:10:14.511Z,0
2017-04-17T02:11:15.626Z,0
2017-04-17T02:12:09.609Z,0
2017-04-17T02:13:03.661Z,0
2017-04-17T02:13:51.940Z,0
2017-04-17T02:14:40.705Z,0
2017-04-17T02:15:35.776Z,0
2017-04-17T02:16:35.787Z,0
2017-04-17T02:17:29.816Z,0
2017-04-17T02:18:17.845Z,0
2017-04-17T02:19:06.866Z,0
2017-04-17T02:20:00.952Z,0
2017-04-17T02:20:55.957Z,0
2017-04-17T02:21:45.003Z,0
2017-04-17T02:22:39.210Z,0
2017-04-17T02:23:28.094Z,0
2017-04-17T02:24:17.096Z,0
2017-04-17T02:25:11.105Z,0
2017-04-17T02:26:11.164Z,0
2017-04-17T02:26:59.135Z,0
2017-04-17T02:28:00.209Z,0
2017-04-17T02:28:54.280Z,0
2017-04-17T02:29:54.381Z,0
2017-04-17T02:30:49.269Z,0
2017-04-17T02:31:44.354Z,0
2017-04-17T02:32:32.421Z,0
2017-04-17T02:33:32.359Z,0
2017-04-17T02:34:38.403Z,0
2017-04-17T02:35:33.484Z,0
2017-04-17T02:36:33.473Z,0
2017-04-17T02:37:28.501Z,0
2017-04-17T02:38:23.502Z,0
2017-04-17T02:39:24.550Z,0
2017-04-17T02:40:24.563Z,0
2017-04-17T02:41:24.608Z,0
2017-04-17T02:42:25.150Z,0
2017-04-17T02:43:25.686Z,0
2017-04-17T02:44:25.693Z,0
2017-04-17T02:45:20.689Z,0
2017-04-17T02:46:08.734Z,0
2017-04-17T02:46:57.814Z,0
2017-04-17T02:47:46.462Z,0
2017-04-17T02:48:40.242Z,0
2017-04-17T02:49:27.920Z,0
2017-04-17T02:50:22.895Z,0
2017-04-17T02:51:17.965Z,0
2017-04-17T02:52:13.001Z,0
2017-04-17T02:53:07.243Z,0
2017-04-17T02:54:02.098Z,0
2017-04-17T02:54:56.123Z,0
2017-04-17T02:55:56.090Z,0
2017-04-17T02:56:50.136Z,0
2017-04-17T02:57:50.167Z,0
2017-04-17T02:58:44.417Z,0
2017-04-17T02:59:38.235Z,0
2017-04-17T03:00:27.256Z,0
2017-04-17T03:01:22.298Z,0
2017-04-17T03:02:22.417Z,0
2017-04-17T03:03:17.479Z,0
2017-04-17T03:04:12.426Z,0
2017-04-17T03:05:12.433Z,0
2017-04-17T03:06:07.420Z,0
2017-04-17T03:07:07.492Z,0
2017-04-17T03:07:56.525Z,0
2017-04-17T03:08:56.554Z,0
2017-04-17T03:09:51.595Z,0
2017-04-17T03:10:46.590Z,0
2017-04-17T03:11:34.661Z,0
2017-04-17T03:12:29.659Z,0
2017-04-17T03:13:29.678Z,0
2017-04-17T03:14:29.850Z,0
2017-04-17T03:15:23.727Z,0
2017-04-17T03:16:23.712Z,0
2017-04-17T03:17:18.804Z,0
2017-04-17T03:18:18.870Z,0
2017-04-17T03:19:12.874Z,0
2017-04-17T03:20:14.092Z,0
2017-04-17T03:21:19.912Z,0
2017-04-17T03:22:13.979Z,0
2017-04-17T03:23:13.975Z,0
2017-04-17T03:24:13.995Z,0
2017-04-17T03:25:14.002Z,0
2017-04-17T03:26:20.078Z,0
2017-04-17T03:27:14.059Z,0
2017-04-17T03:28:03.410Z,0
2017-04-17T03:28:57.155Z,0
2017-04-17T03:29:57.201Z,0
2017-04-17T03:30:51.197Z,0
2017-04-17T03:31:51.276Z,0
2017-04-17T03:32:46.919Z,0
2017-04-17T03:33:34.274Z,0
2017-04-17T03:34:22.368Z,0
2017-04-17T03:35:16.373Z,0
2017-04-17T03:36:16.396Z,0
2017-04-17T03:37:11.681Z,0
2017-04-17T03:38:00.482Z,0
2017-04-17T03:38:54.450Z,0
2017-04-17T03:39:54.521Z,0
2017-04-17T03:40:54.562Z,0
2017-04-17T03:41:48.541Z,0
2017-04-17T03:42:48.748Z,0
2017-04-17T03:43:48.978Z,0
2017-04-17T03:44:42.660Z,0
2017-04-17T03:45:30.671Z,0
2017-04-17T03:46:18.729Z,0
2017-04-17T03:47:06.760Z,0
2017-04-17T03:48:01.856Z,0
2017-04-17T03:48:50.864Z,0
2017-04-17T03:49:38.881Z,0
2017-04-17T03:50:33.048Z,0
2017-04-17T03:51:20.958Z,0
2017-04-17T03:52:20.977Z,0
2017-04-17T03:53:10.761Z,0
2017-04-17T03:54:10.051Z,4
2017-04-17T03:55:04.322Z,4
2017-04-17T03:55:58.104Z,0
2017-04-17T03:56:53.134Z,4
2017-04-17T03:57:53.163Z,4
2017-04-17T03:58:47.195Z,4
2017-04-17T03:59:47.199Z,4
2017-04-17T04:00:41.672Z,4
2017-04-17T04:01:41.257Z,8
2017-04-17T04:02:35.288Z,8
2017-04-17T04:03:35.315Z,8
2017-04-17T04:04:23.420Z,8
2017-04-17T04:05:18.371Z,12
2017-04-17T04:06:07.430Z,12
2017-04-17T04:06:56.460Z,16
2017-04-17T04:07:51.504Z,16
2017-04-17T04:08:46.496Z,20
2017-04-17T04:09:41.554Z,20
2017-04-17T04:10:34.605Z,24
2017-04-17T04:11:22.577Z,24
2017-04-17T04:12:16.681Z,24
2017-04-17T04:13:04.779Z,32
2017-04-17T04:13:53.751Z,36
2017-04-17T04:14:54.101Z,44
2017-04-17T04:15:54.799Z,48
2017-04-17T04:16:55.805Z,56
2017-04-17T04:17:49.865Z,64
2017-04-17T04:18:49.899Z,76
2017-04-17T04:19:44.868Z,84
2017-04-17T04:20:45.174Z,96
2017-04-17T04:21:40.012Z,108
2017-04-17T04:22:34.215Z,116
2017-04-17T04:23:28.034Z,128
2017-04-17T04:24:28.075Z,140
2017-04-17T04:25:23.091Z,152
2017-04-17T04:26:12.784Z,164
2017-04-17T04:27:07.068Z,184
2017-04-17T04:28:01.214Z,196
2017-04-17T04:28:50.184Z,208
2017-04-17T04:29:39.224Z,220
2017-04-17T04:30:27.324Z,232
2017-04-17T04:31:16.656Z,240
2017-04-17T04:32:11.372Z,256
2017-04-17T04:33:05.396Z,264
2017-04-17T04:33:53.440Z,284
2017-04-17T04:34:47.453Z,292
2017-04-17T04:35:36.486Z,300
2017-04-17T04:36:25.925Z,320
2017-04-17T04:37:13.573Z,340
2017-04-17T04:38:08.571Z,364
2017-04-17T04:39:04.111Z,384
2017-04-17T04:39:57.683Z,412
2017-04-17T04:40:51.727Z,444
2017-04-17T04:41:41.387Z,464
2017-04-17T04:42:30.267Z,480
2017-04-17T04:43:23.805Z,488
2017-04-17T04:44:12.840Z,492
2017-04-17T04:45:06.847Z,536
2017-04-17T04:46:01.888Z,568
2017-04-17T04:47:02.847Z,640
2017-04-17T04:48:02.968Z,708
2017-04-17T04:48:51.984Z,756
2017-04-17T04:49:46.060Z,808
2017-04-17T04:50:34.075Z,856
2017-04-17T04:51:34.224Z,880
2017-04-17T04:52:23.383Z,908
2017-04-17T04:53:12.175Z,924
2017-04-17T04:54:07.167Z,960
2017-04-17T04:55:01.218Z,1016
2017-04-17T04:55:55.268Z,1060
2017-04-17T04:56:44.319Z,1084
2017-04-17T04:57:38.894Z,1128
2017-04-17T04:58:38.361Z,1224
2017-04-17T04:59:26.586Z,1408
2017-04-17T05:00:21.443Z,1604
2017-04-17T05:01:10.528Z,1772
2017-04-17T05:02:05.914Z,1880
2017-04-17T05:02:59.848Z,2008
2017-04-17T05:03:53.661Z,2052
2017-04-17T05:04:47.597Z,2220
2017-04-17T05:05:41.696Z,2308
2017-04-17T05:06:35.677Z,2380
2017-04-17T05:07:29.683Z,2468
2017-04-17T05:08:25.107Z,2464
2017-04-17T05:09:12.814Z,2560
2017-04-17T05:10:01.792Z,2532
2017-04-17T05:10:56.881Z,2572
2017-04-17T05:11:51.051Z,2556
2017-04-17T05:12:44.953Z,2452
2017-04-17T05:13:39.369Z,2500
2017-04-17T05:14:28.007Z,2480
2017-04-17T05:15:22.998Z,2548
2017-04-17T05:16:17.087Z,2632
2017-04-17T05:17:12.112Z,2668
2017-04-17T05:18:06.114Z,2656
2017-04-17T05:19:00.486Z,2588
2017-04-17T05:19:55.214Z,2540
2017-04-17T05:20:55.376Z,2624
2017-04-17T05:21:43.314Z,2604
2017-04-17T05:22:31.307Z,2600
2017-04-17T05:23:20.349Z,2496
2017-04-17T05:24:08.713Z,2384
2017-04-17T05:25:03.401Z,2324
2017-04-17T05:26:03.467Z,2136
2017-04-17T05:26:58.456Z,2124
2017-04-17T05:27:58.465Z,2252
2017-04-17T05:28:53.538Z,2508
2017-04-17T05:29:43.065Z,2808
2017-04-17T05:30:36.596Z,3056
2017-04-17T05:31:31.611Z,3032
2017-04-17T05:32:20.684Z,2832
2017-04-17T05:33:09.693Z,2684
2017-04-17T05:33:58.727Z,2768
2017-04-17T05:34:53.117Z,2988
2017-04-17T05:35:41.839Z,3300
2017-04-17T05:36:42.178Z,3800
2017-04-17T05:37:36.895Z,4316
2017-04-17T05:38:30.945Z,4832
2017-04-17T05:39:24.970Z,4948
2017-04-17T05:40:20.322Z,4836
2017-04-17T05:41:14.296Z,4648
2017-04-17T05:42:08.348Z,4160
2017-04-17T05:43:02.121Z,3968
2017-04-17T05:44:02.139Z,3988
2017-04-17T05:44:51.157Z,4208
2017-04-17T05:45:40.664Z,4176
2017-04-17T05:46:34.213Z,3812
2017-04-17T05:47:28.275Z,3280
2017-04-17T05:48:22.410Z,3068
2017-04-17T05:49:11.655Z,2916
2017-04-17T05:50:11.313Z,2700
2017-04-17T05:51:00.697Z,2676
2017-04-17T05:51:49.440Z,3092
2017-04-17T05:52:44.425Z,3896
2017-04-17T05:53:44.720Z,4760
2017-04-17T05:54:38.501Z,5464
2017-04-17T05:55:38.543Z,5948
2017-04-17T05:56:32.938Z,6200
2017-04-17T05:57:32.585Z,5780
2017-04-17T05:58:21.673Z,5540
2017-04-17T05:59:09.682Z,5844
2017-04-17T05:59:58.734Z,6208
2017-04-17T06:00:47.868Z,6708
2017-04-17T06:01:48.578Z,7288
2017-04-17T06:02:42.301Z,7292
2017-04-17T06:03:30.895Z,7048
2017-04-17T06:04:19.933Z,7836
2017-04-17T06:05:25.928Z,9372
2017-04-17T06:06:20.998Z,10408
2017-04-17T06:07:10.313Z,10528
2017-04-17T06:08:10.053Z,10904
2017-04-17T06:08:59.070Z,10028
2017-04-17T06:09:48.116Z,9868
2017-04-17T06:10:37.192Z,9288
2017-04-17T06:11:32.203Z,8916
2017-04-17T06:12:26.495Z,8924
2017-04-17T06:13:20.239Z,8668
2017-04-17T06:14:14.271Z,8764
2017-04-17T06:15:08.389Z,8328
2017-04-17T06:16:08.339Z,8840
2017-04-17T06:17:02.455Z,9100
2017-04-17T06:17:50.451Z,8872
2017-04-17T06:18:38.499Z,9576
2017-04-17T06:19:27.536Z,9676
2017-04-17T06:20:21.505Z,9852
2017-04-17T06:21:09.600Z,10028
2017-04-17T06:21:58.901Z,10052
2017-04-17T06:22:53.666Z,10308
2017-04-17T06:23:53.692Z,10364
2017-04-17T06:24:54.707Z,10384
2017-04-17T06:25:48.730Z,10328
2017-04-17T06:26:42.781Z,10016
2017-04-17T06:27:38.340Z,9484
2017-04-17T06:28:32.910Z,9332
2017-04-17T06:29:26.889Z,9044
2017-04-17T06:30:15.900Z,9464
2017-04-17T06:31:10.009Z,8664
2017-04-17T06:32:09.984Z,8356
2017-04-17T06:33:04.018Z,8704
2017-04-17T06:33:59.096Z,8924
2017-04-17T06:34:48.110Z,9288
2017-04-17T06:35:36.173Z,9540
2017-04-17T06:36:25.166Z,9096
2017-04-17T06:37:14.186Z,9600
2017-04-17T06:38:08.241Z,10144
2017-04-17T06:38:57.319Z,10640
2017-04-17T06:39:46.380Z,10788
2017-04-17T06:40:34.411Z,10924
2017-04-17T06:41:22.425Z,11224
2017-04-17T06:42:16.710Z,11668
2017-04-17T06:43:17.490Z,12436
2017-04-17T06:44:12.499Z,12816
2017-04-17T06:45:13.563Z,13280
2017-04-17T06:46:07.574Z,13776
2017-04-17T06:47:01.619Z,14200
2017-04-17T06:47:55.974Z,14528
2017-04-17T06:48:44.702Z,15864
2017-04-17T06:49:38.715Z,15880
2017-04-17T06:50:32.794Z,18048
2017-04-17T06:51:26.760Z,19456
2017-04-17T06:52:14.795Z,26272
2017-04-17T06:53:02.904Z,30528
2017-04-17T06:53:56.939Z,30976
2017-04-17T06:54:51.000Z,19936
2017-04-17T06:55:45.009Z,19680
2017-04-17T06:56:34.063Z,25440
2017-04-17T06:57:34.098Z,24224
2017-04-17T06:58:28.089Z,20288
2017-04-17T06:59:23.124Z,19104
2017-04-17T07:00:24.257Z,15516
2017-04-17T07:01:24.176Z,12692
2017-04-17T07:02:18.292Z,11856
2017-04-17T07:03:12.254Z,11752
2017-04-17T07:04:07.303Z,11548
2017-04-17T07:05:02.437Z,13324
2017-04-17T07:05:51.422Z,14112
2017-04-17T07:06:51.440Z,14988
2017-04-17T07:07:40.969Z,11768
2017-04-17T07:08:29.484Z,9936
2017-04-17T07:09:23.843Z,9064
2017-04-17T07:10:12.578Z,8988
2017-04-17T07:11:01.649Z,9228
2017-04-17T07:11:56.698Z,9340
2017-04-17T07:12:50.863Z,10868
2017-04-17T07:13:44.760Z,10880
2017-04-17T07:14:39.804Z,10060
2017-04-17T07:15:34.776Z,10652
2017-04-17T07:16:28.867Z,12464
2017-04-17T07:17:23.890Z,14556
2017-04-17T07:18:12.939Z,13532
2017-04-17T07:19:06.953Z,13260
2017-04-17T07:19:55.980Z,15228
2017-04-17T07:20:51.062Z,18912
2017-04-17T07:21:46.076Z,19488
2017-04-17T07:22:41.169Z,13112
2017-04-17T07:23:41.182Z,14100
2017-04-17T07:24:35.174Z,15552
2017-04-17T07:25:23.244Z,17728
2017-04-17T07:26:12.284Z,32864
2017-04-17T07:27:01.365Z,21440
2017-04-17T07:27:55.378Z,18944
2017-04-17T07:28:55.409Z,15916
2017-04-17T07:29:49.625Z,16252
2017-04-17T07:30:50.484Z,16808
2017-04-17T07:31:50.488Z,18688
2017-04-17T07:32:45.557Z,23680
2017-04-17T07:33:39.611Z,36064
2017-04-17T07:34:34.603Z,28832
2017-04-17T07:35:34.643Z,37376
2017-04-17T07:36:29.666Z,33760
2017-04-17T07:37:29.670Z,64288
2017-04-17T07:38:24.745Z,66560
2017-04-17T07:39:13.854Z,64352
2017-04-17T07:40:02.869Z,40096
2017-04-17T07:40:57.904Z,57760
2017-04-17T07:41:58.910Z,21952
2017-04-17T07:42:58.956Z,16160
2017-04-17T07:43:54.005Z,12596
2017-04-17T07:44:43.080Z,10500
2017-04-17T07:45:43.123Z,8792
2017-04-17T07:46:43.130Z,7692
2017-04-17T07:47:37.203Z,6656
2017-04-17T07:48:32.185Z,6164
2017-04-17T07:49:27.282Z,5672
2017-04-17T07:50:21.284Z,5432
2017-04-17T07:51:21.316Z,6292
2017-04-17T07:52:15.316Z,8712
2017-04-17T07:53:16.387Z,11564
2017-04-17T07:54:16.423Z,13384
2017-04-17T07:55:05.509Z,14240
2017-04-17T07:56:11.541Z,17568
2017-04-17T07:57:06.982Z,20512
2017-04-17T07:57:54.583Z,23520
2017-04-17T07:58:54.618Z,26208
2017-04-17T07:59:49.674Z,26688
2017-04-17T08:00:49.700Z,27712
2017-04-17T08:01:43.752Z,29728
2017-04-17T08:02:38.247Z,27840
2017-04-17T08:03:31.789Z,28448
2017-04-17T08:04:19.786Z,28992
2017-04-17T08:05:19.896Z,26080
2017-04-17T08:06:08.938Z,23040
2017-04-17T08:06:56.973Z,36288
2017-04-17T08:07:57.991Z,16288
2017-04-17T08:08:47.037Z,13724
2017-04-17T08:09:41.105Z,11924
2017-04-17T08:10:30.545Z,11580
2017-04-17T08:11:30.196Z,12148
2017-04-17T08:12:25.360Z,13160
2017-04-17T08:13:18.262Z,15084
2017-04-17T08:14:07.695Z,16620
2017-04-17T08:15:01.799Z,18912
2017-04-17T08:15:55.381Z,63936
2017-04-17T08:16:44.389Z,66912
2017-04-17T08:17:38.473Z,66464
2017-04-17T08:18:39.456Z,71904
2017-04-17T08:19:33.549Z,63392
2017-04-17T08:20:27.559Z,76640
2017-04-17T08:21:27.643Z,76576
2017-04-17T08:22:21.707Z,76320
2017-04-17T08:23:22.734Z,74304
2017-04-17T08:24:22.739Z,67488
2017-04-17T08:25:17.823Z,72512
2017-04-17T08:26:11.850Z,68832
2017-04-17T08:27:05.893Z,66400
2017-04-17T08:27:59.907Z,67360
2017-04-17T08:28:54.005Z,48320
2017-04-17T08:29:43.295Z,29472
2017-04-17T08:30:37.099Z,69856
2017-04-17T08:31:32.092Z,20928
2017-04-17T08:32:27.160Z,20064
2017-04-17T08:33:21.209Z,16248
2017-04-17T08:34:15.480Z,14220
2017-04-17T08:35:16.322Z,12112
2017-04-17T08:36:05.337Z,11132
2017-04-17T08:37:00.425Z,10128
2017-04-17T08:37:49.473Z,9568
2017-04-17T08:38:43.888Z,9664
2017-04-17T08:39:38.525Z,10280
2017-04-17T08:40:38.592Z,10512
2017-04-17T08:41:33.660Z,11632
2017-04-17T08:42:21.680Z,13328
2017-04-17T08:43:09.702Z,62816
2017-04-17T08:44:03.768Z,64832
2017-04-17T08:44:57.910Z,66240
2017-04-17T08:45:45.822Z,69024
2017-04-17T08:46:40.108Z,72000
2017-04-17T08:47:34.986Z,74752
2017-04-17T08:48:22.992Z,25440
2017-04-17T08:49:17.057Z,29824
2017-04-17T08:50:12.101Z,50176
2017-04-17T08:51:06.148Z,27808
2017-04-17T08:52:06.203Z,81728
2017-04-17T08:53:01.201Z,81344
2017-04-17T08:53:56.248Z,82944
2017-04-17T08:54:45.283Z,82784
2017-04-17T08:55:39.410Z,48768
2017-04-17T08:56:40.415Z,30944
2017-04-17T08:57:35.474Z,32256
2017-04-17T08:58:29.477Z,26432
2017-04-17T08:59:23.536Z,29408
2017-04-17T09:00:23.609Z,30144
2017-04-17T09:01:17.688Z,80864
2017-04-17T09:02:11.946Z,39136
2017-04-17T09:02:59.730Z,23456
2017-04-17T09:03:53.790Z,23136
2017-04-17T09:04:53.823Z,77792
2017-04-17T09:05:42.876Z,31040
2017-04-17T09:06:36.920Z,76832
2017-04-17T09:07:30.994Z,73056
2017-04-17T09:08:32.017Z,39552
2017-04-17T09:09:27.073Z,22880
2017-04-17T09:10:28.310Z,20864
2017-04-17T09:11:22.186Z,19904
2017-04-17T09:12:11.212Z,19424
2017-04-17T09:13:06.273Z,19968
2017-04-17T09:14:01.274Z,20192
2017-04-17T09:14:55.341Z,32928
2017-04-17T09:15:44.415Z,55488
2017-04-17T09:16:38.469Z,87264
2017-04-17T09:17:38.680Z,86976
2017-04-17T09:18:32.549Z,83136
2017-04-17T09:19:33.847Z,79584
2017-04-17T09:20:28.649Z,78784
2017-04-17T09:21:28.669Z,77024
2017-04-17T09:22:23.732Z,75488
2017-04-17T09:23:23.788Z,84352
2017-04-17T09:24:18.838Z,94016
2017-04-17T09:25:14.224Z,102720
2017-04-17T09:26:02.912Z,54304
2017-04-17T09:26:56.964Z,32320
2017-04-17T09:27:51.995Z,41696
2017-04-17T09:28:47.084Z,67520
2017-04-17T09:29:41.116Z,48000
2017-04-17T09:30:41.198Z,74656
2017-04-17T09:31:35.173Z,82688
2017-04-17T09:32:29.279Z,85152
2017-04-17T09:33:18.302Z,82176
2017-04-17T09:34:07.611Z,79840
2017-04-17T09:34:56.419Z,80192
2017-04-17T09:35:45.496Z,81248
2017-04-17T09:36:33.890Z,96416
2017-04-17T09:37:28.563Z,92128
2017-04-17T09:38:22.630Z,78240
2017-04-17T09:39:11.703Z,51072
2017-04-17T09:40:05.724Z,22976
2017-04-17T09:40:59.791Z,20384
2017-04-17T09:41:54.788Z,19072
2017-04-17T09:42:43.424Z,18656
2017-04-17T09:43:37.971Z,17696
2017-04-17T09:44:38.053Z,16480
2017-04-17T09:45:32.052Z,16288
2017-04-17T09:46:32.126Z,18208
2017-04-17T09:47:21.176Z,20288
2017-04-17T09:48:15.227Z,21952
2017-04-17T09:49:10.259Z,22944
2017-04-17T09:49:58.323Z,23488
2017-04-17T09:50:52.397Z,23584
2017-04-17T09:51:40.400Z,23680
2017-04-17T09:52:34.443Z,25664
2017-04-17T09:53:22.506Z,27168
2017-04-17T09:54:16.594Z,26720
2017-04-17T09:55:10.607Z,32256
2017-04-17T09:56:04.670Z,28096
2017-04-17T09:56:58.994Z,21792
2017-04-17T09:57:52.746Z,19680
2017-04-17T09:58:41.788Z,20000
2017-04-17T09:59:30.787Z,20544
2017-04-17T10:00:25.015Z,24256
2017-04-17T10:01:18.900Z,24352
2017-04-17T10:02:07.978Z,26400
2017-04-17T10:03:02.016Z,28384
2017-04-17T10:03:57.067Z,68288
2017-04-17T10:04:46.087Z,26560
2017-04-17T10:05:40.199Z,27424
2017-04-17T10:06:29.205Z,37376
2017-04-17T10:07:23.289Z,64032
2017-04-17T10:08:11.301Z,26208
2017-04-17T10:09:00.329Z,21664
2017-04-17T10:09:54.364Z,19584
2017-04-17T10:10:54.432Z,18400
2017-04-17T10:11:48.714Z,64992
2017-04-17T10:12:49.492Z,66912
2017-04-17T10:13:43.591Z,73088
2017-04-17T10:14:32.687Z,76928
2017-04-17T10:15:27.673Z,83872
2017-04-17T10:16:21.874Z,87360
2017-04-17T10:17:16.759Z,89920
2017-04-17T10:18:05.777Z,93536
2017-04-17T10:19:00.873Z,96832
2017-04-17T10:20:00.907Z,96448
2017-04-17T10:20:55.918Z,12400
2017-04-17T10:21:51.009Z,89152
2017-04-17T10:22:39.000Z,83616
2017-04-17T10:23:34.084Z,78272
2017-04-17T10:24:28.087Z,76480
2017-04-17T10:25:16.180Z,71296
2017-04-17T10:26:11.744Z,15572
2017-04-17T10:27:05.283Z,86560
2017-04-17T10:27:59.293Z,57120
2017-04-17T10:28:54.299Z,96384
2017-04-17T10:29:48.393Z,96736
2017-04-17T10:30:36.497Z,96096
2017-04-17T10:31:25.477Z,96352
2017-04-17T10:32:19.621Z,94976
2017-04-17T10:33:07.572Z,92800
2017-04-17T10:34:02.663Z,92576
2017-04-17T10:34:50.719Z,89792
2017-04-17T10:35:39.826Z,88672
2017-04-17T10:36:28.845Z,88128
2017-04-17T10:37:30.082Z,85088
2017-04-17T10:38:23.935Z,80672
2017-04-17T10:39:17.979Z,74016
2017-04-17T10:40:12.025Z,69760
2017-04-17T10:41:00.072Z,0
2017-04-17T10:41:54.075Z,0
2017-04-17T10:42:54.198Z,72672
2017-04-17T10:43:48.205Z,78560
2017-04-17T10:44:49.289Z,81952
2017-04-17T10:45:38.289Z,83904
2017-04-17T10:46:27.465Z,83200
2017-04-17T10:47:16.347Z,81152
2017-04-17T10:48:05.670Z,76576
2017-04-17T10:49:05.536Z,74624
2017-04-17T10:49:54.579Z,73856
2017-04-17T10:50:49.657Z,74976
2017-04-17T10:51:37.699Z,76416
2017-04-17T10:52:26.754Z,77760
2017-04-17T10:53:26.854Z,78464
2017-04-17T10:54:15.853Z,19136
2017-04-17T10:55:09.881Z,79456
2017-04-17T10:56:04.983Z,79680
2017-04-17T10:56:54.024Z,81408
2017-04-17T10:57:48.098Z,83200
2017-04-17T10:58:36.195Z,82272
2017-04-17T10:59:31.197Z,82912
2017-04-17T11:00:31.772Z,77664
2017-04-17T11:01:25.273Z,32000
2017-04-17T11:02:20.347Z,92832
2017-04-17T11:03:15.417Z,72288
2017-04-17T11:04:04.761Z,34912
2017-04-17T11:04:58.521Z,41216
2017-04-17T11:05:53.587Z,94720
2017-04-17T11:06:41.635Z,94624
2017-04-17T11:07:35.664Z,100832
2017-04-17T11:08:30.890Z,94368
2017-04-17T11:09:20.320Z,43264
2017-04-17T11:10:13.859Z,24032
2017-04-17T11:11:01.879Z,22336
2017-04-17T11:11:56.100Z,23008
2017-04-17T11:12:50.005Z,49920
2017-04-17T11:13:39.066Z,86592
2017-04-17T11:14:33.423Z,88320
2017-04-17T11:15:28.161Z,90560
2017-04-17T11:16:22.434Z,87904
2017-04-17T11:17:22.575Z,87808
2017-04-17T11:18:17.394Z,88544
2017-04-17T11:19:11.421Z,88544
2017-04-17T11:20:00.745Z,87520
2017-04-17T11:20:54.713Z,88704
2017-04-17T11:21:48.546Z,22528
2017-04-17T11:22:36.668Z,92320
2017-04-17T11:23:25.654Z,91072
2017-04-17T11:24:14.706Z,88800
2017-04-17T11:25:10.283Z,84768
2017-04-17T11:25:57.864Z,64320
2017-04-17T11:26:57.903Z,143648
2017-04-17T11:27:46.486Z,82176
2017-04-17T11:28:34.076Z,81440
2017-04-17T11:29:28.103Z,80608
2017-04-17T11:30:17.470Z,14368
2017-04-17T11:31:05.210Z,22208
2017-04-17T11:32:00.312Z,23168
2017-04-17T11:32:54.290Z,149792
2017-04-17T11:33:43.393Z,26080
2017-04-17T11:34:37.430Z,94304
2017-04-17T11:35:25.782Z,97408
2017-04-17T11:36:13.575Z,101120
2017-04-17T11:37:02.622Z,107136
2017-04-17T11:37:56.875Z,112384
2017-04-17T11:38:50.704Z,113376
2017-04-17T11:39:50.793Z,112096
2017-04-17T11:40:39.892Z,56928
2017-04-17T11:41:33.870Z,81600
2017-04-17T11:42:33.952Z,33440
2017-04-17T11:43:28.011Z,33568
2017-04-17T11:44:22.074Z,43520
2017-04-17T11:45:17.101Z,49728
2017-04-17T11:46:12.205Z,34912
2017-04-17T11:47:06.331Z,27552
2017-04-17T11:48:01.279Z,27072
2017-04-17T11:48:55.337Z,25632
2017-04-17T11:49:55.419Z,23360
2017-04-17T11:50:44.458Z,20576
2017-04-17T11:51:33.885Z,17728
2017-04-17T11:52:21.504Z,15484
2017-04-17T11:53:10.607Z,13844
2017-04-17T11:53:58.696Z,12720
2017-04-17T11:54:52.743Z,11880
2017-04-17T11:55:46.790Z,12292
2017-04-17T11:56:41.887Z,13156
2017-04-17T11:57:36.898Z,13692
2017-04-17T11:58:26.242Z,13736
2017-04-17T11:59:20.016Z,13580
2017-04-17T12:00:14.067Z,13344
2017-04-17T12:01:09.087Z,13508
2017-04-17T12:02:04.220Z,14212
2017-04-17T12:02:53.227Z,16184
2017-04-17T12:03:48.242Z,23712
2017-04-17T12:04:42.331Z,25248
2017-04-17T12:05:37.339Z,48608
2017-04-17T12:06:37.428Z,21376
2017-04-17T12:07:37.452Z,19744
2017-04-17T12:08:37.759Z,23936
2017-04-17T12:09:37.500Z,23488
2017-04-17T12:10:37.529Z,93664
2017-04-17T12:11:31.598Z,90656
2017-04-17T12:12:25.651Z,12796
2017-04-17T12:13:19.891Z,86496
2017-04-17T12:14:20.806Z,85664
2017-04-17T12:15:14.713Z,83584
2017-04-17T12:16:03.787Z,83200
2017-04-17T12:16:57.880Z,82656
2017-04-17T12:17:51.946Z,82848
2017-04-17T12:18:52.337Z,83200
2017-04-17T12:19:46.022Z,82304